Time;durP1;ratioP1;P1;durP2;ratioP2;P2;SDS_P1;SDS_P2;PMS_P1;PMS_P2;Temp;Humidity;BMP_temperature;BMP_pressure;BME280_temperature;BME280_humidity;BME280_pressure;Samples;Min_cycle;Max_cycle;Signal;HPM_P1;HPM_P2
2021/01/03 00:01:58;;;;;;;;;;;;;;;-3.48;40.06;103182.94;4976842;28;19914;-85
2021/01/03 00:04:25;;;;;;;;;;;;;;;-3.61;42.17;103182.84;5007839;28;20263;-86
2021/01/03 00:06:51;;;;;;;;;;;;;;;-3.83;43.40;103200.41;4978771;28;19918;-83
2021/01/03 00:09:18;;;;;;;;;;;;;;;-3.85;43.46;103202.34;4984589;28;20290;-81
2021/01/03 00:11:44;;;;;;;;;;;;;;;-3.83;43.46;103211.22;4982205;28;20362;-81
2021/01/03 00:14:11;;;;;;;;;;;;;;;-3.84;43.37;103212.19;5014716;28;19981;-82
2021/01/03 00:16:38;;;;;;;;;;;;;;;-3.90;42.81;103207.16;4987369;28;20542;-82
2021/01/03 00:19:08;;;;;;;;;;;;;;;-3.86;42.60;103206.03;4986001;28;19921;-83
2021/01/03 00:21:34;;;;;;;;;;;;;;;-3.81;42.46;103201.16;4985282;28;19917;-83
2021/01/03 00:24:00;;;;;;;;;;;;;;;-3.79;42.86;103196.56;4987350;28;19921;-83
2021/01/03 00:26:26;;;;;;;;;;;;;;;-3.76;42.35;103185.53;4980143;28;20013;-85
2021/01/03 00:28:53;;;;;;;;;;;;;;;-3.62;41.79;103187.38;4981344;28;19980;-83
2021/01/03 00:31:19;;;;;;;;;;;;;;;-3.64;41.45;103189.31;4981089;28;19985;-82
2021/01/03 00:33:45;;;;;;;;;;;;;;;-3.74;41.72;103194.41;5011374;28;19914;-88
2021/01/03 00:36:12;;;;;;;;;;;;;;;-3.61;40.97;103202.66;4975367;28;19914;-87
2021/01/03 00:38:38;;;;;;;;;;;;;;;-3.51;40.25;103205.66;5008909;28;20001;-85
2021/01/03 00:41:05;;;;;;;;;;;;;;;-3.40;39.45;103191.44;5010054;28;19914;-86
2021/01/03 00:43:32;;;;;;;;;;;;;;;-3.92;39.19;103139.56;4979078;28;19917;-83
2021/01/03 00:45:58;;;;;;;;;;;;;;;-3.55;38.74;103182.47;4987567;28;19922;-83
2021/01/03 00:48:24;;;;;;;;;;;;;;;-4.08;38.84;103191.09;4981377;28;19965;-83
2021/01/03 00:50:50;;;;;;;;;;;;;;;-4.30;38.46;103186.94;5016793;28;19941;-83
2021/01/03 00:53:17;;;;;;;;;;;;;;;-4.37;35.57;103179.28;4985862;28;19914;-83
2021/01/03 00:55:43;;;;;;;;;;;;;;;-4.40;36.55;103164.13;4983685;28;19914;-82
2021/01/03 00:58:09;;;;;;;;;;;;;;;-4.21;36.96;103173.84;4984574;28;19917;-84
2021/01/03 01:00:36;;;;;;;;;;;;;;;-4.19;35.50;103177.31;5017974;28;19914;-83
2021/01/03 01:03:03;;;;;;;;;;;;;;;-4.19;35.03;103190.84;4987274;28;20383;-84
2021/01/03 01:05:29;;;;;;;;;;;;;;;-4.44;34.90;103189.59;5019371;28;20054;-81
2021/01/03 01:07:58;;;;;;;;;;;;;;;-4.29;34.57;103194.09;4986060;28;20290;-84
2021/01/03 01:10:26;;;;;;;;;;;;;;;-4.26;34.21;103193.06;5001331;28;19945;-81
2021/01/03 01:12:53;;;;;;;;;;;;;;;-4.45;34.14;103185.16;5017809;28;20299;-83
2021/01/03 01:15:20;;;;;;;;;;;;;;;-4.44;35.13;103185.06;4986247;28;19918;-84
2021/01/03 01:17:54;;;;;;;;;;;;;;;-4.53;34.24;103185.59;4984493;28;20012;-81
2021/01/03 01:20:24;;;;;;;;;;;;;;;-4.56;34.77;103178.53;5000828;28;19981;-83
2021/01/03 01:22:50;;;;;;;;;;;;;;;-4.40;34.70;103174.94;4985467;28;19921;-83
2021/01/03 01:25:20;;;;;;;;;;;;;;;-4.26;34.66;103180.38;4982863;28;19914;-81
2021/01/03 01:27:47;;;;;;;;;;;;;;;-3.80;32.40;103174.97;4981505;28;19914;-83
2021/01/03 01:30:14;;;;;;;;;;;;;;;-3.67;32.01;103167.84;5012695;28;19942;-82
2021/01/03 01:32:42;;;;;;;;;;;;;;;-3.62;32.26;103175.69;4985541;28;19914;-83
2021/01/03 01:35:10;;;;;;;;;;;;;;;-3.45;31.49;103175.47;5001350;28;19918;-83
2021/01/03 01:37:38;;;;;;;;;;;;;;;-4.15;30.71;103187.00;4985333;28;19914;-82
2021/01/03 01:40:07;;;;;;;;;;;;;;;-3.89;29.72;103179.13;5000587;28;19926;-82
2021/01/03 01:42:36;;;;;;;;;;;;;;;-3.68;29.31;103176.94;4984615;28;19941;-81
2021/01/03 01:45:04;;;;;;;;;;;;;;;-3.83;29.36;103176.03;5019407;28;20017;-82
2021/01/03 01:47:34;;;;;;;;;;;;;;;-3.87;29.28;103175.34;5001527;28;19914;-82
2021/01/03 01:50:06;;;;;;;;;;;;;;;-3.60;28.56;103171.03;4987063;28;19914;-82
2021/01/03 01:52:34;;;;;;;;;;;;;;;-3.54;28.35;103170.66;5019698;28;19938;-84
2021/01/03 01:55:04;;;;;;;;;;;;;;;-3.44;28.26;103169.09;4986255;28;19937;-82
2021/01/03 01:57:49;;;;;;;;;;;;;;;-3.66;28.58;103183.13;4984671;28;19914;-82
2021/01/03 02:00:21;;;;;;;;;;;;;;;-3.65;28.08;103187.56;4986179;28;19949;-83
2021/01/03 02:03:19;;;;;;;;;;;;;;;-3.69;28.56;103191.41;4985862;28;19914;-84
2021/01/03 02:05:51;;;;;;;;;;;;;;;-3.55;28.60;103179.75;4963737;28;19914;-83
2021/01/03 02:08:36;;;;;;;;;;;;;;;-3.56;28.65;103172.59;5019568;28;19957;-85
2021/01/03 02:11:04;;;;;;;;;;;;;;;-3.79;29.13;103183.03;4986989;28;19945;-83
2021/01/03 02:13:33;;;;;;;;;;;;;;;-3.58;28.71;103161.84;4985200;28;19921;-82
2021/01/03 02:16:04;;;;;;;;;;;;;;;-3.63;28.85;103152.28;5017817;28;19918;-82
2021/01/03 02:18:30;;;;;;;;;;;;;;;-3.82;28.22;103153.41;5017501;28;19918;-82
2021/01/03 02:21:33;;;;;;;;;;;;;;;-3.39;27.62;103148.97;4987440;28;20021;-84
2021/01/03 02:24:08;;;;;;;;;;;;;;;-3.39;27.59;103167.94;4947593;29;19959;-83
2021/01/03 02:26:37;;;;;;;;;;;;;;;-3.46;28.20;103148.47;4946857;29;19914;-82
2021/01/03 02:29:05;;;;;;;;;;;;;;;-3.38;27.53;103148.00;4945203;29;19934;-82
2021/01/03 02:31:41;;;;;;;;;;;;;;;-3.42;27.63;103158.16;4956615;28;19921;-82
2021/01/03 02:34:11;;;;;;;;;;;;;;;-3.61;28.04;103162.03;4987147;28;19921;-81
2021/01/03 02:36:45;;;;;;;;;;;;;;;-3.66;27.99;103158.75;5004652;28;19922;-83
2021/01/03 02:39:20;;;;;;;;;;;;;;;-3.63;28.45;103141.44;4986023;28;19964;-81
2021/01/03 02:41:47;;;;;;;;;;;;;;;-3.68;29.19;103139.03;4983984;28;19914;-83
2021/01/03 02:44:14;;;;;;;;;;;;;;;-3.69;29.38;103131.00;5019847;28;19914;-84
2021/01/03 02:46:41;;;;;;;;;;;;;;;-3.59;29.20;103126.72;4986927;28;20376;-82
2021/01/03 02:49:07;;;;;;;;;;;;;;;-3.59;29.75;103140.28;5020261;28;19937;-84
2021/01/03 02:51:38;;;;;;;;;;;;;;;-3.77;30.51;103134.16;4985612;28;19918;-83
2021/01/03 02:54:07;;;;;;;;;;;;;;;-3.82;30.58;103136.31;5018083;28;19917;-82
2021/01/03 02:56:34;;;;;;;;;;;;;;;-4.04;31.55;103135.78;4987146;28;19914;-82
2021/01/03 02:59:02;;;;;;;;;;;;;;;-3.55;31.60;103128.28;4986420;28;19918;-83
2021/01/03 03:01:30;;;;;;;;;;;;;;;-3.17;30.58;103116.81;4988571;28;19918;-83
2021/01/03 03:03:58;;;;;;;;;;;;;;;-3.27;31.00;103110.22;4987376;28;20391;-83
2021/01/03 03:06:24;;;;;;;;;;;;;;;-3.18;30.76;103106.06;5017325;28;19977;-83
2021/01/03 03:08:51;;;;;;;;;;;;;;;-3.03;30.75;103112.34;4986799;28;19938;-82
2021/01/03 03:11:21;;;;;;;;;;;;;;;-3.35;31.17;103112.56;4986109;28;19918;-83
2021/01/03 03:13:47;;;;;;;;;;;;;;;-2.89;30.86;103103.28;5003523;28;19914;-84
2021/01/03 03:16:16;;;;;;;;;;;;;;;-5.29;31.37;102749.69;4989120;28;19914;-82
2021/01/03 03:18:42;;;;;;;;;;;;;;;-3.18;31.61;103108.78;4985753;28;20045;-83
2021/01/03 03:21:09;;;;;;;;;;;;;;;-3.35;32.13;103109.88;4987670;28;19918;-83
2021/01/03 03:23:35;;;;;;;;;;;;;;;-3.27;32.38;103103.97;5020565;28;19914;-83
2021/01/03 03:26:03;;;;;;;;;;;;;;;-3.06;32.22;103088.13;5002352;28;19929;-85
2021/01/03 03:28:29;;;;;;;;;;;;;;;-3.30;33.29;103091.47;4987072;28;19937;-83
2021/01/03 03:30:55;;;;;;;;;;;;;;;-2.82;32.17;103082.91;5021472;28;20482;-84
2021/01/03 03:33:22;;;;;;;;;;;;;;;-3.08;32.50;103079.22;4980583;28;19914;-83
2021/01/03 03:35:48;;;;;;;;;;;;;;;-2.97;32.87;103084.78;4986704;28;19981;-85
2021/01/03 03:38:14;;;;;;;;;;;;;;;-2.92;32.46;103098.91;4990685;28;19921;-82
2021/01/03 03:40:42;;;;;;;;;;;;;;;-3.28;33.60;103103.06;5018670;28;19914;-84
2021/01/03 03:43:10;;;;;;;;;;;;;;;-3.15;32.92;103100.47;4988559;28;19914;-85
2021/01/03 03:45:36;;;;;;;;;;;;;;;-3.07;33.40;103094.50;5018196;28;19914;-83
2021/01/03 03:48:03;;;;;;;;;;;;;;;-2.86;33.60;103092.22;4978305;28;19918;-85
2021/01/03 03:50:29;;;;;;;;;;;;;;;-2.72;33.91;103088.59;5009671;28;19918;-84
2021/01/03 03:52:56;;;;;;;;;;;;;;;-2.98;34.04;103091.19;4987692;28;19921;-88
2021/01/03 03:55:24;;;;;;;;;;;;;;;-2.96;34.45;103081.13;5019956;28;19914;-85
2021/01/03 03:57:53;;;;;;;;;;;;;;;-2.86;34.46;103086.78;4987500;28;19924;-85
2021/01/03 04:00:24;;;;;;;;;;;;;;;-3.06;34.75;103078.16;4985490;28;19918;-82
2021/01/03 04:02:51;;;;;;;;;;;;;;;-2.93;34.74;103061.94;5013362;28;19925;-84
2021/01/03 04:05:20;;;;;;;;;;;;;;;-2.39;33.61;103045.66;4983182;28;19965;-86
2021/01/03 04:07:47;;;;;;;;;;;;;;;-2.40;34.45;103047.50;4980340;28;19924;-85
2021/01/03 04:10:14;;;;;;;;;;;;;;;-2.20;33.20;103037.97;5013092;28;19957;-86
2021/01/03 04:12:40;;;;;;;;;;;;;;;-2.42;33.98;103044.03;5011968;28;20447;-86
2021/01/03 04:15:10;;;;;;;;;;;;;;;-2.74;34.42;103041.69;4990658;28;20397;-83
2021/01/03 04:17:40;;;;;;;;;;;;;;;-2.52;34.08;103051.06;4991337;28;19920;-83
2021/01/03 04:20:08;;;;;;;;;;;;;;;-2.42;33.89;103030.47;4980806;28;19921;-88
2021/01/03 04:22:34;;;;;;;;;;;;;;;-2.03;33.16;103018.75;4975318;28;20398;-89
2021/01/03 04:25:00;;;;;;;;;;;;;;;-2.22;33.90;103025.47;4986578;28;19933;-84
2021/01/03 04:27:27;;;;;;;;;;;;;;;-2.74;34.26;103030.84;5008349;28;19921;-82
2021/01/03 04:29:53;;;;;;;;;;;;;;;-2.70;34.60;103042.34;4991927;28;19969;-85
2021/01/03 04:32:19;;;;;;;;;;;;;;;-3.37;33.83;102832.78;5014570;28;19925;-87
2021/01/03 04:34:46;;;;;;;;;;;;;;;-2.21;33.94;103029.91;4990794;28;19929;-87
2021/01/03 04:37:16;;;;;;;;;;;;;;;-2.12;33.41;103018.44;5007973;28;19965;-88
2021/01/03 04:39:43;;;;;;;;;;;;;;;-2.18;33.33;103032.44;5008284;28;20314;-87
2021/01/03 04:42:12;;;;;;;;;;;;;;;-2.35;33.37;103037.22;4979791;28;20421;-86
2021/01/03 04:44:43;;;;;;;;;;;;;;;-2.22;33.30;103047.19;4979292;28;20406;-87
2021/01/03 04:47:24;;;;;;;;;;;;;;;-2.28;34.06;103031.34;4976325;28;19918;-84
2021/01/03 04:49:59;;;;;;;;;;;;;;;-2.01;33.83;103038.50;4977860;28;19914;-87
2021/01/03 04:52:43;;;;;;;;;;;;;;;-2.30;33.97;103044.16;4985010;28;19918;-83
2021/01/03 04:55:16;;;;;;;;;;;;;;;-2.38;33.86;103042.00;5018967;28;19918;-85
2021/01/03 04:58:06;;;;;;;;;;;;;;;-2.08;33.76;103044.38;5010323;28;19918;-88
2021/01/03 05:00:34;;;;;;;;;;;;;;;-1.93;33.61;103025.25;4968713;28;19965;-87
2021/01/03 05:03:06;;;;;;;;;;;;;;;-2.08;34.69;103021.78;4992247;28;19914;-89
2021/01/03 05:05:37;;;;;;;;;;;;;;;-2.01;34.16;103019.50;5007729;28;19920;-89
2021/01/03 05:08:11;;;;;;;;;;;;;;;-1.99;34.76;103014.81;5009279;28;20008;-86
2021/01/03 05:10:37;;;;;;;;;;;;;;;-1.96;34.79;103022.75;5006966;28;19917;-88
2021/01/03 05:13:23;;;;;;;;;;;;;;;-1.71;34.26;103024.56;4975587;28;19918;-86
2021/01/03 05:15:49;;;;;;;;;;;;;;;-1.28;33.41;103034.09;4974628;28;20302;-85
2021/01/03 05:18:16;;;;;;;;;;;;;;;-1.68;34.30;103034.31;4974346;28;20502;-88
2021/01/03 05:20:42;;;;;;;;;;;;;;;-1.84;35.19;103035.44;5006937;28;19921;-88
2021/01/03 05:23:13;;;;;;;;;;;;;;;-1.89;35.40;103031.31;5006444;28;19921;-87
2021/01/03 05:25:40;;;;;;;;;;;;;;;-2.08;36.49;103017.22;5012546;28;19918;-82
2021/01/03 05:28:13;;;;;;;;;;;;;;;-2.24;36.70;103019.28;5005505;28;19937;-83
2021/01/03 05:30:39;;;;;;;;;;;;;;;-2.05;36.97;103018.84;4992860;28;19925;-85
2021/01/03 05:33:12;;;;;;;;;;;;;;;-1.95;36.81;103027.22;4979775;28;20355;-85
2021/01/03 05:35:40;;;;;;;;;;;;;;;-1.97;36.63;103023.75;4982318;28;19929;-83
2021/01/03 05:38:07;;;;;;;;;;;;;;;-1.66;36.30;103005.22;4991081;28;19922;-87
2021/01/03 05:40:36;;;;;;;;;;;;;;;-1.88;36.65;102995.91;4975815;28;20378;-88
2021/01/03 05:43:20;;;;;;;;;;;;;;;-2.19;37.28;103000.84;5009648;28;19918;-82
2021/01/03 05:45:55;;;;;;;;;;;;;;;-2.24;37.31;102992.16;5022928;28;20333;-83
2021/01/03 05:48:23;;;;;;;;;;;;;;;-1.87;37.38;102994.94;5007319;28;19917;-87
2021/01/03 05:50:50;;;;;;;;;;;;;;;-1.84;36.63;102986.53;4975733;28;19918;-85
2021/01/03 05:53:20;;;;;;;;;;;;;;;-2.17;37.77;102990.75;4982407;28;19914;-79
2021/01/03 05:55:54;;;;;;;;;;;;;;;-2.08;37.81;102990.06;4983704;28;19918;-82
2021/01/03 05:58:50;;;;;;;;;;;;;;;-1.99;37.44;102999.41;5019073;28;19917;-80
2021/01/03 06:01:21;;;;;;;;;;;;;;;-2.39;38.07;103011.25;4974762;28;19985;-81
2021/01/03 06:04:05;;;;;;;;;;;;;;;-2.78;39.22;103011.22;5015046;28;20020;-79
2021/01/03 06:06:41;;;;;;;;;;;;;;;-2.49;38.81;102996.63;5017391;28;19924;-80
2021/01/03 06:09:07;;;;;;;;;;;;;;;-2.58;38.30;102971.00;5015802;28;19940;-79
2021/01/03 06:11:36;;;;;;;;;;;;;;;-2.95;39.45;102998.84;4983714;28;19941;-81
2021/01/03 06:14:05;;;;;;;;;;;;;;;-2.53;38.53;102989.66;4986488;28;19918;-81
2021/01/03 06:16:36;;;;;;;;;;;;;;;-2.24;38.40;102981.31;5019806;28;19925;-82
2021/01/03 06:19:02;;;;;;;;;;;;;;;-2.65;38.23;102985.97;5018794;28;19918;-81
2021/01/03 06:21:31;;;;;;;;;;;;;;;-2.44;37.91;102982.72;5016657;28;20371;-81
2021/01/03 06:24:15;;;;;;;;;;;;;;;-2.61;38.31;102971.22;4985711;28;19959;-80
2021/01/03 06:26:46;;;;;;;;;;;;;;;-2.54;38.20;102974.38;5001292;28;19917;-81
2021/01/03 06:29:20;;;;;;;;;;;;;;;-2.79;38.98;102987.78;5016094;28;19922;-81
2021/01/03 06:32:12;;;;;;;;;;;;;;;-2.72;38.40;102984.66;4984559;28;19917;-80
2021/01/03 06:34:49;;;;;;;;;;;;;;;-2.76;38.85;102984.88;4971550;28;19985;-82
2021/01/03 06:37:34;;;;;;;;;;;;;;;-2.79;38.52;102985.06;5020178;28;19936;-81
2021/01/03 06:40:29;;;;;;;;;;;;;;;-2.93;39.24;102998.72;4989095;28;19925;-82
2021/01/03 06:43:13;;;;;;;;;;;;;;;-2.50;38.50;102981.31;4986428;28;20294;-82
2021/01/03 06:45:55;;;;;;;;;;;;;;;-2.37;37.91;102984.88;5018545;28;19924;-83
2021/01/03 06:48:27;;;;;;;;;;;;;;;-2.38;38.46;102990.44;5020869;28;19969;-82
2021/01/03 06:51:09;;;;;;;;;;;;;;;-2.70;38.82;103004.38;5020040;28;19917;-82
2021/01/03 06:54:04;;;;;;;;;;;;;;;-2.63;38.56;103001.16;5019971;28;19926;-82
2021/01/03 06:56:37;;;;;;;;;;;;;;;-2.80;38.48;102999.59;4975563;28;19914;-79
2021/01/03 06:59:03;;;;;;;;;;;;;;;-2.83;38.85;103004.38;4987877;28;19914;-81
2021/01/03 07:01:34;;;;;;;;;;;;;;;-2.49;37.94;102991.19;4988397;28;19942;-83
2021/01/03 07:04:01;;;;;;;;;;;;;;;-2.49;37.72;103004.75;5004256;28;19921;-80
2021/01/03 07:06:35;;;;;;;;;;;;;;;-2.39;38.24;103003.13;5011040;28;20417;-88
2021/01/03 07:09:08;;;;;;;;;;;;;;;-2.54;38.37;103004.19;5011067;28;19913;-85
2021/01/03 07:11:38;;;;;;;;;;;;;;;-2.43;37.95;103012.47;4986203;28;19914;-87
2021/01/03 07:14:09;;;;;;;;;;;;;;;-2.35;37.88;103007.38;4988293;28;19922;-82
2021/01/03 07:16:46;;;;;;;;;;;;;;;-2.30;37.91;103011.59;5020341;28;19925;-81
2021/01/03 07:19:15;;;;;;;;;;;;;;;-2.30;37.96;103008.88;5021308;28;19917;-83
2021/01/03 07:21:43;;;;;;;;;;;;;;;-2.52;38.26;103008.53;4990195;28;19925;-81
2021/01/03 07:24:25;;;;;;;;;;;;;;;-2.55;38.67;103016.03;4988336;28;19927;-85
2021/01/03 07:27:09;;;;;;;;;;;;;;;-2.63;39.33;103003.00;5020100;28;19914;-82
2021/01/03 07:29:48;;;;;;;;;;;;;;;-2.38;38.44;103004.84;5001140;28;19929;-82
2021/01/03 07:32:15;;;;;;;;;;;;;;;-2.32;37.93;103003.53;4986207;28;19940;-83
2021/01/03 07:34:42;;;;;;;;;;;;;;;-2.35;38.30;102999.22;5018983;28;19918;-83
2021/01/03 07:37:11;;;;;;;;;;;;;;;-2.62;39.13;103007.44;4988237;28;20345;-82
2021/01/03 07:39:56;;;;;;;;;;;;;;;-2.99;39.59;103013.56;4989682;28;19914;-80
2021/01/03 07:42:24;;;;;;;;;;;;;;;-2.73;39.43;103016.34;5020402;28;19974;-83
2021/01/03 07:44:51;;;;;;;;;;;;;;;-2.67;39.41;103020.47;4990766;28;19914;-82
2021/01/03 07:47:33;;;;;;;;;;;;;;;-2.85;39.83;103004.47;5022224;28;20015;-81
2021/01/03 07:50:20;;;;;;;;;;;;;;;-2.91;39.68;102999.50;5021460;28;20382;-82
2021/01/03 07:52:52;;;;;;;;;;;;;;;-2.86;39.36;103004.59;5017147;28;19918;-83
2021/01/03 07:55:22;;;;;;;;;;;;;;;-2.66;38.58;102989.66;5019102;28;19938;-82
2021/01/03 07:58:11;;;;;;;;;;;;;;;-2.80;39.53;102993.34;4991334;28;19941;-81
2021/01/03 08:00:38;;;;;;;;;;;;;;;-2.62;38.98;102985.72;4983959;28;19914;-82
2021/01/03 08:03:06;;;;;;;;;;;;;;;-3.04;40.23;102981.34;4984763;28;19976;-81
2021/01/03 08:05:33;;;;;;;;;;;;;;;-2.61;39.14;102982.06;5016962;28;19930;-82
2021/01/03 08:08:18;;;;;;;;;;;;;;;-2.82;39.12;102984.41;4988524;28;20016;-84
2021/01/03 08:10:45;;;;;;;;;;;;;;;-2.86;39.63;102993.75;5023325;28;19961;-82
2021/01/03 08:13:18;;;;;;;;;;;;;;;-2.65;38.75;102985.97;5023582;28;19977;-84
2021/01/03 08:15:44;;;;;;;;;;;;;;;-2.54;38.89;102982.50;4991008;28;19941;-83
2021/01/03 08:18:19;;;;;;;;;;;;;;;-2.56;38.46;102990.72;5023266;28;19914;-83
2021/01/03 08:20:45;;;;;;;;;;;;;;;-2.77;39.11;103003.94;4990740;28;19988;-82
2021/01/03 08:23:22;;;;;;;;;;;;;;;-2.96;40.07;103005.22;4985140;28;20426;-82
2021/01/03 08:25:49;;;;;;;;;;;;;;;-3.00;39.82;102998.28;4986087;28;19922;-82
2021/01/03 08:28:19;;;;;;;;;;;;;;;-2.96;39.87;102999.81;4999294;28;19925;-82
2021/01/03 08:30:47;;;;;;;;;;;;;;;-2.97;39.97;103003.47;4984970;28;19949;-82
2021/01/03 08:33:16;;;;;;;;;;;;;;;-3.11;40.23;102992.69;5000757;28;19921;-82
2021/01/03 08:35:43;;;;;;;;;;;;;;;-3.06;40.50;102993.25;4984088;28;19952;-82
2021/01/03 08:38:10;;;;;;;;;;;;;;;-3.21;40.60;103004.16;4983557;28;19981;-80
2021/01/03 08:40:42;;;;;;;;;;;;;;;-3.09;40.19;103001.63;4985205;28;19914;-84
2021/01/03 08:43:08;;;;;;;;;;;;;;;-3.14;40.25;103006.47;5016110;28;19925;-83
2021/01/03 08:45:45;;;;;;;;;;;;;;;-3.04;39.96;103008.44;5016446;28;19965;-81
2021/01/03 08:48:13;;;;;;;;;;;;;;;-3.17;40.30;103007.53;4984265;28;19914;-80
2021/01/03 08:50:40;;;;;;;;;;;;;;;-3.15;40.17;103002.91;5012348;28;19914;-83
2021/01/03 08:53:17;;;;;;;;;;;;;;;-3.00;40.33;103003.69;5015678;28;20409;-84
2021/01/03 08:55:43;;;;;;;;;;;;;;;-2.85;39.55;103007.19;5019957;28;19914;-83
2021/01/03 08:58:12;;;;;;;;;;;;;;;-2.99;40.16;103008.13;4983425;28;19953;-85
2021/01/03 09:00:40;;;;;;;;;;;;;;;-2.73;39.69;103016.34;4984284;28;20375;-83
2021/01/03 09:03:10;;;;;;;;;;;;;;;-2.41;39.66;103005.09;5011678;28;19914;-83
2021/01/03 09:05:37;;;;;;;;;;;;;;;-2.47;39.57;103010.94;4981821;28;19914;-84
2021/01/03 09:08:05;;;;;;;;;;;;;;;-2.41;39.33;103018.66;5009854;28;19914;-83
2021/01/03 09:10:42;;;;;;;;;;;;;;;-2.44;39.32;103010.72;5011391;28;19953;-84
2021/01/03 09:13:15;;;;;;;;;;;;;;;-2.39;39.69;103004.94;4996034;28;19956;-85
2021/01/03 09:15:44;;;;;;;;;;;;;;;-2.36;39.41;103008.31;5011756;28;19925;-85
2021/01/03 09:18:21;;;;;;;;;;;;;;;-2.43;39.34;102996.19;5012090;28;19918;-83
2021/01/03 09:20:48;;;;;;;;;;;;;;;-2.43;39.62;103004.31;5012266;28;20021;-82
2021/01/03 09:23:19;;;;;;;;;;;;;;;-2.42;39.64;103002.47;5012383;28;19921;-83
2021/01/03 09:25:50;;;;;;;;;;;;;;;-2.30;39.73;103000.72;5008528;28;19922;-88
2021/01/03 09:28:33;;;;;;;;;;;;;;;-2.35;40.01;102999.22;5007904;28;19924;-88
2021/01/03 09:31:17;;;;;;;;;;;;;;;-2.35;39.54;103001.94;4978155;28;19956;-84
2021/01/03 09:33:49;;;;;;;;;;;;;;;-2.49;40.30;103007.47;4979977;28;19925;-84
2021/01/03 09:36:27;;;;;;;;;;;;;;;-2.40;39.95;103012.25;4979266;28;19914;-86
2021/01/03 09:38:54;;;;;;;;;;;;;;;-2.36;40.37;103007.47;4993457;28;19914;-83
2021/01/03 09:41:36;;;;;;;;;;;;;;;-2.60;41.48;103008.22;5009833;28;19957;-82
2021/01/03 09:44:08;;;;;;;;;;;;;;;-2.49;41.32;102999.34;4976814;28;19918;-82
2021/01/03 09:46:57;;;;;;;;;;;;;;;-2.49;40.68;103008.31;5010367;28;19914;-83
2021/01/03 09:49:27;;;;;;;;;;;;;;;-2.36;41.45;103011.03;4975848;28;20118;-81
2021/01/03 09:52:11;;;;;;;;;;;;;;;-2.49;41.42;103016.47;5013535;28;20285;-87
2021/01/03 09:54:50;;;;;;;;;;;;;;;-2.51;41.18;103031.97;4998490;28;19924;-84
2021/01/03 09:57:34;;;;;;;;;;;;;;;-2.49;41.93;103027.31;5017556;28;19914;-85
2021/01/03 10:00:01;;;;;;;;;;;;;;;-2.72;42.05;103022.63;5010527;28;20346;-85
2021/01/03 10:02:28;;;;;;;;;;;;;;;-3.13;43.40;103024.47;5011063;28;19949;-85
2021/01/03 10:04:54;;;;;;;;;;;;;;;-3.26;43.70;103025.28;4980390;28;19918;-83
2021/01/03 10:07:24;;;;;;;;;;;;;;;-3.48;44.10;103028.53;4979900;28;19917;-85
2021/01/03 10:09:51;;;;;;;;;;;;;;;-3.32;43.85;103025.69;5012659;28;19914;-84
2021/01/03 10:12:19;;;;;;;;;;;;;;;-3.13;43.56;103024.47;5010044;28;19925;-86
2021/01/03 10:14:59;;;;;;;;;;;;;;;-3.28;43.32;103027.22;5012444;28;20310;-85
2021/01/03 10:17:25;;;;;;;;;;;;;;;-3.40;43.97;103025.34;4981181;28;19934;-84
2021/01/03 10:19:51;;;;;;;;;;;;;;;-3.44;44.07;103022.81;4979136;28;20291;-83
2021/01/03 10:22:29;;;;;;;;;;;;;;;-3.34;43.68;103027.63;5010331;28;20024;-83
2021/01/03 10:24:57;;;;;;;;;;;;;;;-3.07;42.89;103024.06;4992999;28;20068;-84
2021/01/03 10:27:23;;;;;;;;;;;;;;;-2.95;43.25;103034.06;4976003;28;19917;-86
2021/01/03 10:29:49;;;;;;;;;;;;;;;-2.85;43.00;103039.72;4974082;28;19926;-88
2021/01/03 10:32:16;;;;;;;;;;;;;;;-3.09;43.29;103048.53;4973599;28;19936;-85
2021/01/03 10:34:42;;;;;;;;;;;;;;;-3.35;43.20;103043.03;5005489;28;19914;-83
2021/01/03 10:37:08;;;;;;;;;;;;;;;-3.59;43.74;103057.19;5006938;28;19918;-83
2021/01/03 10:39:34;;;;;;;;;;;;;;;-3.30;43.35;103056.25;4973695;28;20365;-86
2021/01/03 10:42:05;;;;;;;;;;;;;;;-3.13;43.09;103052.44;4973098;28;20256;-88
2021/01/03 10:44:31;;;;;;;;;;;;;;;-3.40;42.87;103055.13;5006281;28;19914;-84
2021/01/03 10:46:59;;;;;;;;;;;;;;;-3.48;43.11;103064.63;5015591;28;19961;-83
2021/01/03 10:49:25;;;;;;;;;;;;;;;-3.51;42.62;103067.53;4985548;28;19925;-83
2021/01/03 10:51:52;;;;;;;;;;;;;;;-3.46;42.74;103076.22;4978748;28;20398;-86
2021/01/03 10:54:19;;;;;;;;;;;;;;;-3.32;42.18;103077.19;5006309;28;19914;-87
2021/01/03 10:56:49;;;;;;;;;;;;;;;-3.05;41.49;103068.16;5005184;28;19914;-89
2021/01/03 10:59:15;;;;;;;;;;;;;;;-3.25;41.78;103070.38;4973004;28;19914;-88
2021/01/03 11:01:42;;;;;;;;;;;;;;;-3.11;41.27;103071.28;5005061;28;19921;-86
2021/01/03 11:04:08;;;;;;;;;;;;;;;-3.09;40.91;103072.06;4972430;28;19914;-86
2021/01/03 11:06:38;;;;;;;;;;;;;;;-2.76;41.23;103077.06;5003977;28;19961;-87
2021/01/03 11:09:04;;;;;;;;;;;;;;;-2.80;40.24;103089.09;5005297;28;19918;-88
2021/01/03 11:11:31;;;;;;;;;;;;;;;-2.97;40.57;103084.78;4972978;28;19918;-87
2021/01/03 11:13:57;;;;;;;;;;;;;;;-2.82;40.95;103082.91;4970973;28;19964;-86
2021/01/03 11:16:30;;;;;;;;;;;;;;;-2.73;41.02;103084.13;4971574;28;20371;-87
2021/01/03 11:18:57;;;;;;;;;;;;;;;-2.54;40.09;103096.44;4973179;28;20004;-85
2021/01/03 11:21:23;;;;;;;;;;;;;;;-2.55;39.76;103100.13;4973150;28;19914;-88
2021/01/03 11:23:49;;;;;;;;;;;;;;;-2.50;39.85;103104.25;4971958;28;20358;-88
2021/01/03 11:26:15;;;;;;;;;;;;;;;-2.42;39.22;103090.16;4971711;28;19921;-88
2021/01/03 11:28:42;;;;;;;;;;;;;;;-2.36;40.13;103097.84;5004055;28;19918;-88
2021/01/03 11:31:08;;;;;;;;;;;;;;;-2.53;40.39;103092.75;4973018;28;19918;-86
2021/01/03 11:33:34;;;;;;;;;;;;;;;-3.47;40.70;102976.97;4974626;28;20267;-89
2021/01/03 11:36:00;;;;;;;;;;;;;;;-2.64;40.83;103075.38;4973560;28;20341;-88
2021/01/03 11:38:27;;;;;;;;;;;;;;;-2.62;41.16;103084.25;5003921;28;19918;-87
2021/01/03 11:40:53;;;;;;;;;;;;;;;-2.56;41.12;103076.69;4972880;28;19926;-89
2021/01/03 11:43:19;;;;;;;;;;;;;;;-2.46;40.79;103082.34;4975278;28;20012;-89
2021/01/03 11:45:45;;;;;;;;;;;;;;;-2.48;40.45;103079.75;4973752;28;19914;-88
2021/01/03 11:48:11;;;;;;;;;;;;;;;-2.62;40.87;103081.53;4971698;28;19918;-87
2021/01/03 11:50:38;;;;;;;;;;;;;;;-2.64;41.40;103094.34;4973158;28;19978;-87
2021/01/03 11:53:04;;;;;;;;;;;;;;;-2.50;40.71;103092.53;4971356;28;19957;-88
2021/01/03 11:55:30;;;;;;;;;;;;;;;-2.55;41.51;103094.69;4971356;28;20378;-88
2021/01/03 11:57:56;;;;;;;;;;;;;;;-2.59;41.25;103093.16;4972900;28;19914;-86
2021/01/03 12:00:23;;;;;;;;;;;;;;;-2.55;41.43;103105.53;4971515;28;19914;-87
2021/01/03 12:02:49;;;;;;;;;;;;;;;-2.50;41.08;103095.25;5003845;28;19929;-88
2021/01/03 12:05:17;;;;;;;;;;;;;;;-2.54;40.49;103101.84;4971832;28;20008;-87
2021/01/03 12:07:43;;;;;;;;;;;;;;;-2.47;40.83;103095.03;5004575;28;20017;-89
2021/01/03 12:10:10;;;;;;;;;;;;;;;-2.45;40.05;103098.50;5005174;28;20302;-87
2021/01/03 12:12:36;;;;;;;;;;;;;;;-2.82;41.15;103109.13;4972562;28;19945;-88
2021/01/03 12:15:02;;;;;;;;;;;;;;;-2.79;41.47;103095.41;4972924;28;20016;-86
2021/01/03 12:17:29;;;;;;;;;;;;;;;-2.80;41.74;103094.50;5006382;28;20024;-86
2021/01/03 12:19:55;;;;;;;;;;;;;;;-2.85;42.22;103096.66;4976816;28;19914;-85
2021/01/03 12:22:21;;;;;;;;;;;;;;;-2.75;42.13;103102.34;4976601;28;19925;-88
2021/01/03 12:24:47;;;;;;;;;;;;;;;-3.02;42.12;103100.50;4981224;28;19968;-83
2021/01/03 12:27:16;;;;;;;;;;;;;;;-2.93;41.90;103104.44;4982416;28;19914;-84
2021/01/03 12:29:43;;;;;;;;;;;;;;;-2.85;42.14;103103.94;5015872;28;19957;-84
2021/01/03 12:32:13;;;;;;;;;;;;;;;-2.96;41.99;103101.94;4985885;28;19985;-86
2021/01/03 12:34:39;;;;;;;;;;;;;;;-2.75;41.35;103097.78;4985835;28;20028;-86
2021/01/03 12:37:07;;;;;;;;;;;;;;;-2.87;41.73;103095.03;4984127;28;20394;-85
2021/01/03 12:39:34;;;;;;;;;;;;;;;-3.14;42.42;103087.75;4988707;28;19950;-87
2021/01/03 12:42:01;;;;;;;;;;;;;;;-2.82;41.58;103087.44;5015832;28;20008;-84
2021/01/03 12:44:27;;;;;;;;;;;;;;;-2.80;41.85;103086.38;4977053;28;19918;-86
2021/01/03 12:46:57;;;;;;;;;;;;;;;-2.65;42.15;103083.59;5009447;28;19918;-87
2021/01/03 12:49:23;;;;;;;;;;;;;;;-2.79;41.70;103079.13;4978275;28;19918;-87
2021/01/03 12:51:53;;;;;;;;;;;;;;;-2.64;41.54;103085.34;4976930;28;20492;-88